sensor_id;sensor_type;location;lat;lon;timestamp;pressure;altitude;pressure_sealevel;temperature;humidity
59588;BME280;45412;54.472;18.464;2023-06-26T00:00:28;99969.45;;;14.35;86.83
59588;BME280;45412;54.472;18.464;2023-06-26T00:03:34;99966.80;;;14.31;86.93
59588;BME280;45412;54.472;18.464;2023-06-26T00:06:21;99967.67;;;14.27;87.50
59588;BME280;45412;54.472;18.464;2023-06-26T00:09:10;99970.91;;;14.23;88.02
59588;BME280;45412;54.472;18.464;2023-06-26T00:11:58;99967.65;;;14.20;87.82
59588;BME280;45412;54.472;18.464;2023-06-26T00:14:46;99963.38;;;14.14;87.81
59588;BME280;45412;54.472;18.464;2023-06-26T00:17:33;99968.58;;;14.18;88.04
59588;BME280;45412;54.472;18.464;2023-06-26T00:20:23;99964.55;;;14.17;87.90
59588;BME280;45412;54.472;18.464;2023-06-26T00:23:12;99964.94;;;14.15;88.28
59588;BME280;45412;54.472;18.464;2023-06-26T00:25:59;99964.17;;;14.13;88.94
59588;BME280;45412;54.472;18.464;2023-06-26T00:28:47;99963.75;;;14.12;89.57
59588;BME280;45412;54.472;18.464;2023-06-26T00:31:33;99967.02;;;14.11;90.14
59588;BME280;45412;54.472;18.464;2023-06-26T00:34:21;99961.39;;;14.09;90.57
59588;BME280;45412;54.472;18.464;2023-06-26T00:37:07;99962.65;;;14.05;91.11
59588;BME280;45412;54.472;18.464;2023-06-26T00:39:54;99962.13;;;14.01;92.03
59588;BME280;45412;54.472;18.464;2023-06-26T00:42:43;99964.56;;;14.00;92.31
59588;BME280;45412;54.472;18.464;2023-06-26T00:45:29;99961.30;;;13.96;92.28
59588;BME280;45412;54.472;18.464;2023-06-26T00:48:29;99960.99;;;13.96;92.82
59588;BME280;45412;54.472;18.464;2023-06-26T00:51:16;99958.73;;;13.93;93.32
59588;BME280;45412;54.472;18.464;2023-06-26T00:54:02;99960.15;;;13.91;93.74
59588;BME280;45412;54.472;18.464;2023-06-26T00:56:49;99962.30;;;13.87;94.10
59588;BME280;45412;54.472;18.464;2023-06-26T00:59:35;99958.52;;;13.84;94.36
59588;BME280;45412;54.472;18.464;2023-06-26T01:02:22;99958.54;;;13.82;94.56
59588;BME280;45412;54.472;18.464;2023-06-26T01:05:09;99956.21;;;13.80;94.73
59588;BME280;45412;54.472;18.464;2023-06-26T01:07:59;99956.32;;;13.79;94.69
59588;BME280;45412;54.472;18.464;2023-06-26T01:10:46;99955.05;;;13.77;94.72
59588;BME280;45412;54.472;18.464;2023-06-26T01:13:34;99957.98;;;13.76;95.12
59588;BME280;45412;54.472;18.464;2023-06-26T01:16:23;99952.90;;;13.75;95.15
59588;BME280;45412;54.472;18.464;2023-06-26T01:19:24;99951.80;;;13.76;95.41
59588;BME280;45412;54.472;18.464;2023-06-26T01:28:56;99945.52;;;13.78;94.96
59588;BME280;45412;54.472;18.464;2023-06-26T01:31:46;99943.54;;;13.78;94.94
59588;BME280;45412;54.472;18.464;2023-06-26T01:34:34;99940.52;;;13.76;95.23
59588;BME280;45412;54.472;18.464;2023-06-26T01:37:21;99939.52;;;13.74;94.89
59588;BME280;45412;54.472;18.464;2023-06-26T01:40:08;99940.56;;;13.72;94.94
59588;BME280;45412;54.472;18.464;2023-06-26T01:42:56;99934.38;;;13.71;95.10
59588;BME280;45412;54.472;18.464;2023-06-26T01:45:46;99933.05;;;13.70;95.19
59588;BME280;45412;54.472;18.464;2023-06-26T01:48:42;99932.20;;;13.68;95.33
59588;BME280;45412;54.472;18.464;2023-06-26T01:51:35;99927.86;;;13.67;95.81
59588;BME280;45412;54.472;18.464;2023-06-26T01:54:29;99926.31;;;13.66;95.93
59588;BME280;45412;54.472;18.464;2023-06-26T01:57:18;99927.35;;;13.65;95.87
59588;BME280;45412;54.472;18.464;2023-06-26T02:00:06;99925.95;;;13.62;96.31
59588;BME280;45412;54.472;18.464;2023-06-26T02:02:59;99925.77;;;13.62;96.48
59588;BME280;45412;54.472;18.464;2023-06-26T02:05:46;99924.08;;;13.63;96.69
59588;BME280;45412;54.472;18.464;2023-06-26T02:08:32;99924.67;;;13.65;97.11
59588;BME280;45412;54.472;18.464;2023-06-26T02:11:18;99925.07;;;13.66;97.10
59588;BME280;45412;54.472;18.464;2023-06-26T02:14:05;99923.52;;;13.66;96.95
59588;BME280;45412;54.472;18.464;2023-06-26T02:16:51;99921.15;;;13.66;97.21
59588;BME280;45412;54.472;18.464;2023-06-26T02:19:38;99923.98;;;13.68;97.36
59588;BME280;45412;54.472;18.464;2023-06-26T02:22:32;99922.91;;;13.70;97.26
59588;BME280;45412;54.472;18.464;2023-06-26T02:25:18;99922.91;;;13.72;97.00
59588;BME280;45412;54.472;18.464;2023-06-26T02:28:05;99922.59;;;13.72;96.67
59588;BME280;45412;54.472;18.464;2023-06-26T02:30:51;99916.76;;;13.71;96.47
59588;BME280;45412;54.472;18.464;2023-06-26T02:33:38;99914.14;;;13.70;96.14
59588;BME280;45412;54.472;18.464;2023-06-26T02:36:25;99911.48;;;13.70;96.27
59588;BME280;45412;54.472;18.464;2023-06-26T02:39:11;99909.69;;;13.70;96.68
59588;BME280;45412;54.472;18.464;2023-06-26T02:41:58;99908.31;;;13.74;96.79
59588;BME280;45412;54.472;18.464;2023-06-26T02:44:47;99908.49;;;13.75;96.59
59588;BME280;45412;54.472;18.464;2023-06-26T02:47:34;99905.63;;;13.76;96.68
59588;BME280;45412;54.472;18.464;2023-06-26T02:50:21;99903.84;;;13.77;97.06
59588;BME280;45412;54.472;18.464;2023-06-26T02:53:28;99897.14;;;13.81;97.01
59588;BME280;45412;54.472;18.464;2023-06-26T02:56:15;99893.45;;;13.84;97.12
59588;BME280;45412;54.472;18.464;2023-06-26T02:59:01;99896.33;;;13.87;96.70
59588;BME280;45412;54.472;18.464;2023-06-26T03:01:48;99897.60;;;13.89;96.16
59588;BME280;45412;54.472;18.464;2023-06-26T03:04:35;99896.77;;;13.90;95.55
59588;BME280;45412;54.472;18.464;2023-06-26T03:07:24;99897.92;;;13.91;95.67
59588;BME280;45412;54.472;18.464;2023-06-26T03:10:11;99899.67;;;13.91;96.29
59588;BME280;45412;54.472;18.464;2023-06-26T03:12:58;99897.44;;;13.94;96.84
59588;BME280;45412;54.472;18.464;2023-06-26T03:15:44;99897.66;;;14.00;96.83
59588;BME280;45412;54.472;18.464;2023-06-26T03:18:30;99901.52;;;14.06;96.92
59588;BME280;45412;54.472;18.464;2023-06-26T03:21:17;99898.96;;;14.12;97.20
59588;BME280;45412;54.472;18.464;2023-06-26T03:24:04;99898.48;;;14.21;97.08
59588;BME280;45412;54.472;18.464;2023-06-26T03:26:51;99897.45;;;14.26;97.00
59588;BME280;45412;54.472;18.464;2023-06-26T03:29:38;99897.79;;;14.32;97.09
59588;BME280;45412;54.472;18.464;2023-06-26T03:32:24;99899.11;;;14.37;96.99
59588;BME280;45412;54.472;18.464;2023-06-26T03:35:11;99897.54;;;14.42;96.72
59588;BME280;45412;54.472;18.464;2023-06-26T03:37:58;99891.91;;;14.49;96.60
59588;BME280;45412;54.472;18.464;2023-06-26T03:40:47;99886.83;;;14.55;96.36
59588;BME280;45412;54.472;18.464;2023-06-26T03:43:36;99890.58;;;14.63;96.40
59588;BME280;45412;54.472;18.464;2023-06-26T03:46:48;99891.10;;;14.73;96.00
59588;BME280;45412;54.472;18.464;2023-06-26T03:49:36;99891.62;;;14.80;95.67
59588;BME280;45412;54.472;18.464;2023-06-26T03:52:23;99888.98;;;14.89;95.11
59588;BME280;45412;54.472;18.464;2023-06-26T03:55:10;99886.84;;;14.98;94.88
59588;BME280;45412;54.472;18.464;2023-06-26T03:57:57;99884.37;;;15.08;94.52
59588;BME280;45412;54.472;18.464;2023-06-26T04:00:43;99882.10;;;15.17;94.22
59588;BME280;45412;54.472;18.464;2023-06-26T04:03:30;99879.02;;;15.26;93.81
59588;BME280;45412;54.472;18.464;2023-06-26T04:06:17;99882.20;;;15.37;93.50
59588;BME280;45412;54.472;18.464;2023-06-26T04:09:03;99880.64;;;15.47;92.87
59588;BME280;45412;54.472;18.464;2023-06-26T04:11:51;99876.89;;;15.60;92.54
59588;BME280;45412;54.472;18.464;2023-06-26T04:14:38;99876.00;;;15.72;92.04
59588;BME280;45412;54.472;18.464;2023-06-26T04:17:25;99873.27;;;15.87;91.60
59588;BME280;45412;54.472;18.464;2023-06-26T04:20:12;99872.34;;;16.03;90.78
59588;BME280;45412;54.472;18.464;2023-06-26T04:22:58;99869.88;;;16.22;89.47
59588;BME280;45412;54.472;18.464;2023-06-26T04:25:45;99864.55;;;16.43;87.92
59588;BME280;45412;54.472;18.464;2023-06-26T04:28:34;99870.15;;;16.72;86.32
59588;BME280;45412;54.472;18.464;2023-06-26T04:31:21;99863.35;;;17.04;85.13
59588;BME280;45412;54.472;18.464;2023-06-26T04:34:08;99861.26;;;17.41;82.68
59588;BME280;45412;54.472;18.464;2023-06-26T04:36:54;99858.83;;;17.80;80.90
59588;BME280;45412;54.472;18.464;2023-06-26T04:39:41;99858.42;;;18.28;79.19
59588;BME280;45412;54.472;18.464;2023-06-26T04:42:27;99857.36;;;18.82;76.64
59588;BME280;45412;54.472;18.464;2023-06-26T04:45:16;99854.98;;;19.44;74.32
59588;BME280;45412;54.472;18.464;2023-06-26T04:48:03;99853.90;;;20.14;72.07
59588;BME280;45412;54.472;18.464;2023-06-26T04:50:49;99853.36;;;20.90;68.53
59588;BME280;45412;54.472;18.464;2023-06-26T04:53:39;99851.98;;;21.63;65.20
59588;BME280;45412;54.472;18.464;2023-06-26T04:56:26;99853.64;;;22.35;62.04
59588;BME280;45412;54.472;18.464;2023-06-26T04:59:13;99854.42;;;23.08;59.38
59588;BME280;45412;54.472;18.464;2023-06-26T05:02:00;99854.30;;;23.86;56.27
59588;BME280;45412;54.472;18.464;2023-06-26T05:04:47;99851.23;;;24.58;51.36
59588;BME280;45412;54.472;18.464;2023-06-26T05:07:34;99846.73;;;25.30;49.28
59588;BME280;45412;54.472;18.464;2023-06-26T05:10:21;99847.79;;;25.94;46.05
59588;BME280;45412;54.472;18.464;2023-06-26T05:13:08;99844.59;;;26.55;44.26
59588;BME280;45412;54.472;18.464;2023-06-26T05:15:54;99842.77;;;27.14;41.96
59588;BME280;45412;54.472;18.464;2023-06-26T05:18:41;99841.56;;;27.78;40.45
59588;BME280;45412;54.472;18.464;2023-06-26T05:21:28;99834.92;;;28.43;37.71
59588;BME280;45412;54.472;18.464;2023-06-26T05:24:15;99835.38;;;29.07;36.36
59588;BME280;45412;54.472;18.464;2023-06-26T05:27:02;99837.23;;;29.75;34.50
59588;BME280;45412;54.472;18.464;2023-06-26T05:29:49;99834.25;;;30.41;34.00
59588;BME280;45412;54.472;18.464;2023-06-26T05:32:39;99829.61;;;31.10;33.05
59588;BME280;45412;54.472;18.464;2023-06-26T05:35:29;99834.23;;;31.65;31.14
59588;BME280;45412;54.472;18.464;2023-06-26T05:38:17;99834.27;;;32.15;29.33
59588;BME280;45412;54.472;18.464;2023-06-26T05:41:04;99833.73;;;32.64;28.33
59588;BME280;45412;54.472;18.464;2023-06-26T05:43:51;99829.04;;;33.09;27.29
59588;BME280;45412;54.472;18.464;2023-06-26T05:46:40;99826.23;;;33.39;27.14
59588;BME280;45412;54.472;18.464;2023-06-26T05:49:26;99826.07;;;33.82;26.39
59588;BME280;45412;54.472;18.464;2023-06-26T05:52:13;99825.56;;;34.22;25.91
59588;BME280;45412;54.472;18.464;2023-06-26T05:55:00;99825.77;;;34.52;25.23
59588;BME280;45412;54.472;18.464;2023-06-26T05:57:49;99825.86;;;34.82;24.52
59588;BME280;45412;54.472;18.464;2023-06-26T06:00:38;99817.31;;;35.05;24.06
59588;BME280;45412;54.472;18.464;2023-06-26T06:03:24;99821.16;;;35.21;23.42
59588;BME280;45412;54.472;18.464;2023-06-26T06:06:11;99824.16;;;35.47;23.19
59588;BME280;45412;54.472;18.464;2023-06-26T06:08:58;99819.19;;;35.59;23.32
59588;BME280;45412;54.472;18.464;2023-06-26T06:11:45;99820.98;;;35.76;22.91
59588;BME280;45412;54.472;18.464;2023-06-26T06:14:32;99830.18;;;36.07;23.32
59588;BME280;45412;54.472;18.464;2023-06-26T06:17:20;99825.44;;;36.42;22.63
59588;BME280;45412;54.472;18.464;2023-06-26T06:20:07;99822.43;;;36.83;22.06
59588;BME280;45412;54.472;18.464;2023-06-26T06:22:54;99821.40;;;37.13;21.77
59588;BME280;45412;54.472;18.464;2023-06-26T06:25:40;99819.61;;;37.48;20.60
59588;BME280;45412;54.472;18.464;2023-06-26T06:28:27;99815.28;;;37.78;20.43
59588;BME280;45412;54.472;18.464;2023-06-26T06:31:13;99813.96;;;38.03;20.29
59588;BME280;45412;54.472;18.464;2023-06-26T06:34:00;99812.32;;;38.12;19.84
59588;BME280;45412;54.472;18.464;2023-06-26T06:36:46;99809.48;;;38.13;20.29
59588;BME280;45412;54.472;18.464;2023-06-26T06:39:32;99807.71;;;38.18;20.27
59588;BME280;45412;54.472;18.464;2023-06-26T06:42:19;99804.29;;;38.26;20.25
59588;BME280;45412;54.472;18.464;2023-06-26T06:45:06;99802.59;;;38.35;20.08
59588;BME280;45412;54.472;18.464;2023-06-26T06:47:52;99800.46;;;38.45;19.86
59588;BME280;45412;54.472;18.464;2023-06-26T06:50:38;99796.86;;;38.52;19.51
59588;BME280;45412;54.472;18.464;2023-06-26T06:53:25;99796.65;;;38.83;19.37
59588;BME280;45412;54.472;18.464;2023-06-26T06:56:11;99794.30;;;38.84;19.25
59588;BME280;45412;54.472;18.464;2023-06-26T06:58:57;99792.40;;;38.84;19.25
59588;BME280;45412;54.472;18.464;2023-06-26T07:01:44;99792.67;;;38.94;18.86
59588;BME280;45412;54.472;18.464;2023-06-26T07:04:30;99787.29;;;39.23;18.13
59588;BME280;45412;54.472;18.464;2023-06-26T07:07:18;99787.20;;;39.34;18.06
59588;BME280;45412;54.472;18.464;2023-06-26T07:10:12;99788.77;;;39.55;17.56
59588;BME280;45412;54.472;18.464;2023-06-26T07:12:59;99785.94;;;39.62;17.23
59588;BME280;45412;54.472;18.464;2023-06-26T07:15:46;99784.25;;;39.60;17.33
59588;BME280;45412;54.472;18.464;2023-06-26T07:18:37;99786.15;;;39.66;17.34
59588;BME280;45412;54.472;18.464;2023-06-26T07:21:23;99781.62;;;39.83;16.72
59588;BME280;45412;54.472;18.464;2023-06-26T07:24:12;99783.45;;;40.07;16.74
59588;BME280;45412;54.472;18.464;2023-06-26T07:26:59;99780.08;;;40.28;16.22
59588;BME280;45412;54.472;18.464;2023-06-26T07:29:47;99776.34;;;40.56;16.01
59588;BME280;45412;54.472;18.464;2023-06-26T07:32:33;99776.08;;;40.71;15.75
59588;BME280;45412;54.472;18.464;2023-06-26T07:35:19;99773.77;;;40.87;15.82
59588;BME280;45412;54.472;18.464;2023-06-26T07:38:06;99773.42;;;41.04;15.26
59588;BME280;45412;54.472;18.464;2023-06-26T07:40:52;99776.58;;;41.07;15.29
59588;BME280;45412;54.472;18.464;2023-06-26T07:43:38;99770.98;;;41.24;15.03
59588;BME280;45412;54.472;18.464;2023-06-26T07:46:24;99771.14;;;41.34;15.41
59588;BME280;45412;54.472;18.464;2023-06-26T07:49:11;99767.54;;;41.47;15.01
59588;BME280;45412;54.472;18.464;2023-06-26T07:51:58;99762.15;;;41.42;15.17
59588;BME280;45412;54.472;18.464;2023-06-26T07:54:45;99763.08;;;41.27;15.29
59588;BME280;45412;54.472;18.464;2023-06-26T07:57:31;99762.80;;;40.90;15.48
59588;BME280;45412;54.472;18.464;2023-06-26T08:00:18;99758.63;;;40.64;15.92
59588;BME280;45412;54.472;18.464;2023-06-26T08:03:05;99757.03;;;40.83;16.13
59588;BME280;45412;54.472;18.464;2023-06-26T08:05:56;99754.16;;;40.87;16.16
59588;BME280;45412;54.472;18.464;2023-06-26T08:08:43;99752.30;;;41.00;17.19
59588;BME280;45412;54.472;18.464;2023-06-26T08:11:30;99750.10;;;41.11;18.25
59588;BME280;45412;54.472;18.464;2023-06-26T08:14:17;99747.23;;;41.05;18.91
59588;BME280;45412;54.472;18.464;2023-06-26T08:17:03;99750.92;;;40.89;19.62
59588;BME280;45412;54.472;18.464;2023-06-26T08:19:50;99748.29;;;40.56;19.21
59588;BME280;45412;54.472;18.464;2023-06-26T08:22:37;99740.36;;;40.24;20.03
59588;BME280;45412;54.472;18.464;2023-06-26T08:25:23;99740.64;;;40.21;20.56
59588;BME280;45412;54.472;18.464;2023-06-26T08:28:10;99741.46;;;40.12;20.24
59588;BME280;45412;54.472;18.464;2023-06-26T08:30:56;99738.59;;;40.06;20.98
59588;BME280;45412;54.472;18.464;2023-06-26T08:33:43;99736.98;;;39.99;20.70
59588;BME280;45412;54.472;18.464;2023-06-26T08:36:31;99737.02;;;39.68;20.33
59588;BME280;45412;54.472;18.464;2023-06-26T08:39:18;99738.62;;;39.37;20.87
59588;BME280;45412;54.472;18.464;2023-06-26T08:42:05;99743.45;;;39.43;20.98
59588;BME280;45412;54.472;18.464;2023-06-26T08:44:52;99737.71;;;39.47;20.71
59588;BME280;45412;54.472;18.464;2023-06-26T08:47:51;99736.34;;;39.49;20.84
59588;BME280;45412;54.472;18.464;2023-06-26T08:50:40;99732.30;;;39.44;21.10
59588;BME280;45412;54.472;18.464;2023-06-26T08:53:52;99731.05;;;39.49;21.16
59588;BME280;45412;54.472;18.464;2023-06-26T08:56:42;99733.59;;;39.40;20.71
59588;BME280;45412;54.472;18.464;2023-06-26T08:59:31;99730.46;;;39.23;21.12
59588;BME280;45412;54.472;18.464;2023-06-26T09:02:18;99730.50;;;39.22;21.07
59588;BME280;45412;54.472;18.464;2023-06-26T09:05:07;99728.52;;;39.42;21.08
59588;BME280;45412;54.472;18.464;2023-06-26T09:07:53;99724.67;;;39.70;21.04
59588;BME280;45412;54.472;18.464;2023-06-26T09:10:44;99731.58;;;39.89;20.86
59588;BME280;45412;54.472;18.464;2023-06-26T09:13:33;99727.23;;;39.56;20.98
59588;BME280;45412;54.472;18.464;2023-06-26T09:16:25;99725.77;;;39.34;21.44
59588;BME280;45412;54.472;18.464;2023-06-26T09:19:15;99724.02;;;39.52;21.10
59588;BME280;45412;54.472;18.464;2023-06-26T09:22:02;99721.55;;;39.60;20.71
59588;BME280;45412;54.472;18.464;2023-06-26T09:24:48;99723.34;;;39.60;20.67
59588;BME280;45412;54.472;18.464;2023-06-26T09:27:39;99724.17;;;39.66;20.86
59588;BME280;45412;54.472;18.464;2023-06-26T09:30:26;99720.33;;;39.71;20.89
59588;BME280;45412;54.472;18.464;2023-06-26T09:33:18;99721.73;;;39.68;20.94
59588;BME280;45412;54.472;18.464;2023-06-26T09:36:19;99718.34;;;39.58;21.08
59588;BME280;45412;54.472;18.464;2023-06-26T09:39:08;99715.59;;;39.26;21.36
59588;BME280;45412;54.472;18.464;2023-06-26T09:41:56;99711.23;;;39.21;20.96
59588;BME280;45412;54.472;18.464;2023-06-26T09:45:07;99714.36;;;39.27;20.83
59588;BME280;45412;54.472;18.464;2023-06-26T09:47:54;99707.96;;;39.25;20.99
59588;BME280;45412;54.472;18.464;2023-06-26T09:50:42;99708.40;;;39.16;20.89
59588;BME280;45412;54.472;18.464;2023-06-26T09:53:48;99705.55;;;39.06;21.20
59588;BME280;45412;54.472;18.464;2023-06-26T09:56:35;99702.92;;;38.89;21.44
59588;BME280;45412;54.472;18.464;2023-06-26T09:59:23;99703.04;;;38.69;21.46
59588;BME280;45412;54.472;18.464;2023-06-26T10:02:09;99703.59;;;38.62;21.67
59588;BME280;45412;54.472;18.464;2023-06-26T10:04:57;99705.13;;;38.41;21.64
59588;BME280;45412;54.472;18.464;2023-06-26T10:07:46;99701.40;;;38.28;21.66
59588;BME280;45412;54.472;18.464;2023-06-26T10:10:36;99695.79;;;38.26;21.44
59588;BME280;45412;54.472;18.464;2023-06-26T10:13:31;99696.67;;;38.30;21.69
59588;BME280;45412;54.472;18.464;2023-06-26T10:16:26;99693.45;;;38.62;21.56
59588;BME280;45412;54.472;18.464;2023-06-26T10:19:17;99687.69;;;38.87;20.90
59588;BME280;45412;54.472;18.464;2023-06-26T10:22:07;99685.63;;;39.04;20.42
59588;BME280;45412;54.472;18.464;2023-06-26T10:24:58;99689.50;;;39.18;19.97
59588;BME280;45412;54.472;18.464;2023-06-26T10:27:53;99687.75;;;39.29;19.77
59588;BME280;45412;54.472;18.464;2023-06-26T10:30:42;99687.90;;;39.26;19.64
59588;BME280;45412;54.472;18.464;2023-06-26T10:33:30;99687.33;;;39.36;19.11
59588;BME280;45412;54.472;18.464;2023-06-26T10:36:20;99686.52;;;39.27;18.66
59588;BME280;45412;54.472;18.464;2023-06-26T10:39:12;99684.19;;;39.23;18.29
59588;BME280;45412;54.472;18.464;2023-06-26T10:42:09;99686.08;;;39.27;17.82
59588;BME280;45412;54.472;18.464;2023-06-26T10:45:09;99676.08;;;39.34;17.84
59588;BME280;45412;54.472;18.464;2023-06-26T10:47:57;99677.05;;;39.31;17.82
59588;BME280;45412;54.472;18.464;2023-06-26T10:50:47;99677.47;;;39.37;18.23
59588;BME280;45412;54.472;18.464;2023-06-26T10:53:35;99670.90;;;39.32;18.13
59588;BME280;45412;54.472;18.464;2023-06-26T10:56:42;99665.63;;;39.28;18.12
59588;BME280;45412;54.472;18.464;2023-06-26T10:59:31;99664.73;;;39.40;18.20
59588;BME280;45412;54.472;18.464;2023-06-26T11:02:18;99655.81;;;39.31;18.30
59588;BME280;45412;54.472;18.464;2023-06-26T11:05:05;99652.72;;;39.24;18.57
59588;BME280;45412;54.472;18.464;2023-06-26T11:08:09;99652.95;;;38.88;18.58
59588;BME280;45412;54.472;18.464;2023-06-26T11:11:03;99652.05;;;38.51;19.14
59588;BME280;45412;54.472;18.464;2023-06-26T11:13:49;99653.42;;;37.87;19.86
59588;BME280;45412;54.472;18.464;2023-06-26T11:16:36;99652.91;;;37.10;20.19
59588;BME280;45412;54.472;18.464;2023-06-26T11:19:25;99646.61;;;36.23;21.23
59588;BME280;45412;54.472;18.464;2023-06-26T11:22:13;99646.80;;;35.74;22.12
59588;BME280;45412;54.472;18.464;2023-06-26T11:25:01;99640.46;;;35.34;22.43
59588;BME280;45412;54.472;18.464;2023-06-26T11:27:47;99635.73;;;35.08;22.69
59588;BME280;45412;54.472;18.464;2023-06-26T11:30:33;99634.59;;;34.95;22.60
59588;BME280;45412;54.472;18.464;2023-06-26T11:33:26;99633.29;;;34.73;22.90
59588;BME280;45412;54.472;18.464;2023-06-26T11:36:12;99633.75;;;34.38;23.35
59588;BME280;45412;54.472;18.464;2023-06-26T11:39:01;99634.90;;;33.85;23.86
59588;BME280;45412;54.472;18.464;2023-06-26T11:41:53;99634.12;;;33.13;25.20
59588;BME280;45412;54.472;18.464;2023-06-26T11:44:42;99628.11;;;32.49;26.16
59588;BME280;45412;54.472;18.464;2023-06-26T11:47:29;99627.98;;;32.02;27.20
59588;BME280;45412;54.472;18.464;2023-06-26T11:50:16;99633.94;;;31.42;27.92
59588;BME280;45412;54.472;18.464;2023-06-26T11:53:03;99636.31;;;30.82;28.74
59588;BME280;45412;54.472;18.464;2023-06-26T11:55:51;99639.56;;;30.42;29.43
59588;BME280;45412;54.472;18.464;2023-06-26T12:01:50;99632.65;;;29.87;29.86
59588;BME280;45412;54.472;18.464;2023-06-26T12:04:38;99624.19;;;29.63;30.12
59588;BME280;45412;54.472;18.464;2023-06-26T12:07:27;99619.58;;;29.42;30.51
59588;BME280;45412;54.472;18.464;2023-06-26T12:10:15;99621.95;;;29.22;30.96
59588;BME280;45412;54.472;18.464;2023-06-26T12:13:01;99626.80;;;29.02;31.06
59588;BME280;45412;54.472;18.464;2023-06-26T12:15:48;99625.20;;;28.86;30.76
59588;BME280;45412;54.472;18.464;2023-06-26T12:18:39;99625.30;;;28.64;31.35
59588;BME280;45412;54.472;18.464;2023-06-26T12:24:26;99613.88;;;28.29;31.54
59588;BME280;45412;54.472;18.464;2023-06-26T12:27:15;99619.48;;;28.18;31.48
59588;BME280;45412;54.472;18.464;2023-06-26T12:30:04;99616.38;;;28.09;31.13
59588;BME280;45412;54.472;18.464;2023-06-26T12:32:51;99612.22;;;27.94;31.44
59588;BME280;45412;54.472;18.464;2023-06-26T12:35:38;99614.51;;;27.95;31.06
59588;BME280;45412;54.472;18.464;2023-06-26T12:38:34;99610.11;;;27.92;30.74
59588;BME280;45412;54.472;18.464;2023-06-26T12:41:24;99609.47;;;27.86;30.87
59588;BME280;45412;54.472;18.464;2023-06-26T12:44:22;99603.42;;;27.81;30.56
59588;BME280;45412;54.472;18.464;2023-06-26T12:47:08;99601.30;;;27.68;30.94
59588;BME280;45412;54.472;18.464;2023-06-26T12:49:56;99596.91;;;27.61;31.24
59588;BME280;45412;54.472;18.464;2023-06-26T12:52:43;99589.83;;;27.68;30.99
59588;BME280;45412;54.472;18.464;2023-06-26T12:55:30;99586.16;;;27.70;30.98
59588;BME280;45412;54.472;18.464;2023-06-26T12:58:16;99582.11;;;27.73;30.97
59588;BME280;45412;54.472;18.464;2023-06-26T13:01:06;99577.19;;;27.79;31.17
59588;BME280;45412;54.472;18.464;2023-06-26T13:04:02;99578.58;;;27.86;31.25
59588;BME280;45412;54.472;18.464;2023-06-26T13:06:49;99574.68;;;27.85;30.80
59588;BME280;45412;54.472;18.464;2023-06-26T13:09:36;99577.50;;;27.80;30.73
59588;BME280;45412;54.472;18.464;2023-06-26T13:12:23;99574.34;;;27.76;31.17
59588;BME280;45412;54.472;18.464;2023-06-26T13:15:10;99572.13;;;27.68;31.56
59588;BME280;45412;54.472;18.464;2023-06-26T13:17:57;99569.27;;;27.62;31.83
59588;BME280;45412;54.472;18.464;2023-06-26T13:20:44;99566.17;;;27.58;32.43
59588;BME280;45412;54.472;18.464;2023-06-26T13:23:30;99563.34;;;27.55;32.70
59588;BME280;45412;54.472;18.464;2023-06-26T13:26:16;99559.05;;;27.59;32.45
59588;BME280;45412;54.472;18.464;2023-06-26T13:29:22;99557.77;;;27.60;32.10
59588;BME280;45412;54.472;18.464;2023-06-26T13:32:08;99551.17;;;27.56;32.27
59588;BME280;45412;54.472;18.464;2023-06-26T13:34:55;99548.70;;;27.38;32.50
59588;BME280;45412;54.472;18.464;2023-06-26T13:37:41;99539.70;;;27.26;32.84
59588;BME280;45412;54.472;18.464;2023-06-26T13:40:28;99532.87;;;27.21;32.62
59588;BME280;45412;54.472;18.464;2023-06-26T13:43:15;99536.21;;;27.18;32.74
59588;BME280;45412;54.472;18.464;2023-06-26T13:46:02;99538.01;;;27.13;32.47
59588;BME280;45412;54.472;18.464;2023-06-26T13:48:49;99531.90;;;27.11;32.93
59588;BME280;45412;54.472;18.464;2023-06-26T13:51:35;99522.84;;;27.00;33.09
59588;BME280;45412;54.472;18.464;2023-06-26T13:54:22;99517.91;;;26.95;32.83
59588;BME280;45412;54.472;18.464;2023-06-26T13:57:09;99516.19;;;26.93;32.66
59588;BME280;45412;54.472;18.464;2023-06-26T13:59:55;99518.93;;;26.96;32.69
59588;BME280;45412;54.472;18.464;2023-06-26T14:02:42;99513.59;;;27.00;32.14
59588;BME280;45412;54.472;18.464;2023-06-26T14:05:30;99507.25;;;27.04;31.48
59588;BME280;45412;54.472;18.464;2023-06-26T14:08:21;99506.42;;;27.15;31.68
59588;BME280;45412;54.472;18.464;2023-06-26T14:11:08;99503.11;;;27.16;30.97
59588;BME280;45412;54.472;18.464;2023-06-26T14:13:55;99489.85;;;27.13;31.15
59588;BME280;45412;54.472;18.464;2023-06-26T14:16:41;99488.59;;;27.11;31.16
59588;BME280;45412;54.472;18.464;2023-06-26T14:19:29;99483.46;;;27.11;31.51
59588;BME280;45412;54.472;18.464;2023-06-26T14:22:15;99483.08;;;27.05;31.03
59588;BME280;45412;54.472;18.464;2023-06-26T14:25:03;99482.71;;;27.01;31.27
59588;BME280;45412;54.472;18.464;2023-06-26T14:27:51;99481.48;;;27.05;31.24
59588;BME280;45412;54.472;18.464;2023-06-26T14:30:38;99475.15;;;27.03;31.30
59588;BME280;45412;54.472;18.464;2023-06-26T14:33:24;99473.02;;;26.92;30.96
59588;BME280;45412;54.472;18.464;2023-06-26T14:36:11;99469.59;;;26.87;31.16
59588;BME280;45412;54.472;18.464;2023-06-26T14:38:58;99465.42;;;26.80;31.30
59588;BME280;45412;54.472;18.464;2023-06-26T14:41:46;99469.23;;;26.65;31.49
59588;BME280;45412;54.472;18.464;2023-06-26T14:44:34;99466.79;;;26.62;31.52
59588;BME280;45412;54.472;18.464;2023-06-26T14:47:24;99465.23;;;26.55;31.50
59588;BME280;45412;54.472;18.464;2023-06-26T14:50:14;99464.42;;;26.45;31.52
59588;BME280;45412;54.472;18.464;2023-06-26T14:53:00;99462.95;;;26.38;31.28